Time;durP1;ratioP1;P1;durP2;ratioP2;P2;SDS_P1;SDS_P2;PMS_P1;PMS_P2;Temp;Humidity;BMP_temperature;BMP_pressure;BME280_temperature;BME280_humidity;BME280_pressure;Samples;Min_cycle;Max_cycle;Signal;HPM_P1;HPM_P2
2021/12/17 00:00:16;;;;;;;4.55;2.10;;;20.70;61.20;;;;;;5034323;28;20049;-61
2021/12/17 00:05:43;;;;;;;2.65;1.98;;;20.70;61.10;;;;;;5035720;28;20049;-61
2021/12/17 00:08:08;;;;;;;3.70;2.30;;;20.60;61.10;;;;;;5036250;28;20386;-61
2021/12/17 00:10:34;;;;;;;3.72;2.00;;;20.60;61.10;;;;;;5036318;28;20492;-62
2021/12/17 00:13:00;;;;;;;3.50;1.70;;;20.70;61.10;;;;;;5035049;28;20205;-61
2021/12/17 00:15:25;;;;;;;2.85;1.77;;;20.60;61.10;;;;;;5036215;28;20478;-61
2021/12/17 00:17:57;;;;;;;3.47;2.05;;;20.60;61.10;;;;;;5033472;28;20038;-61
2021/12/17 00:20:57;;;;;;;3.33;1.88;;;20.60;61.10;;;;;;5032868;28;20079;-61
2021/12/17 00:53:26;;;;;;;4.18;1.95;;;20.50;61.10;;;;;;5033848;28;20049;-60
2021/12/17 00:55:51;;;;;;;3.28;1.90;;;20.40;61.00;;;;;;5034032;28;20041;-60
2021/12/17 00:58:17;;;;;;;3.30;1.63;;;20.40;61.00;;;;;;5034764;28;20110;-60
2021/12/17 01:00:42;;;;;;;3.22;1.80;;;20.40;61.10;;;;;;5034417;28;20041;-61
2021/12/17 01:03:08;;;;;;;3.42;1.83;;;20.40;61.10;;;;;;5034465;28;20041;-61
2021/12/17 01:05:34;;;;;;;2.88;1.88;;;20.40;61.10;;;;;;5033768;28;20045;-61
2021/12/17 01:08:00;;;;;;;3.35;1.92;;;20.40;61.00;;;;;;5035004;28;20041;-61
2021/12/17 01:10:31;;;;;;;3.40;1.80;;;20.40;61.00;;;;;;5033264;28;20056;-61
2021/12/17 01:12:57;;;;;;;2.95;1.83;;;20.40;61.00;;;;;;5034874;28;20042;-61
2021/12/17 01:15:22;;;;;;;4.32;2.00;;;20.40;61.00;;;;;;5033514;28;20504;-61
2021/12/17 01:17:50;;;;;;;4.32;2.17;;;20.40;61.00;;;;;;5033196;28;20079;-60
2021/12/17 01:20:48;;;;;;;4.70;1.85;;;20.40;61.00;;;;;;5035076;28;20136;-61
2021/12/17 01:36:40;;;;;;;2.75;1.73;;;20.30;60.90;;;;;;5034135;28;20460;-60
2021/12/17 01:42:05;;;;;;;2.53;1.40;;;20.30;60.90;;;;;;5032832;28;20042;-60
2021/12/17 01:44:37;;;;;;;2.95;1.75;;;20.30;61.00;;;;;;5034016;28;20046;-60
2021/12/17 01:47:04;;;;;;;4.15;1.70;;;20.30;60.90;;;;;;5034469;28;20037;-61
2021/12/17 02:00:06;;;;;;;2.78;1.63;;;20.20;60.80;;;;;;5033718;28;20060;-60
2021/12/17 02:02:37;;;;;;;2.65;1.40;;;20.20;60.80;;;;;;5034446;28;20049;-60
2021/12/17 02:05:03;;;;;;;2.83;1.40;;;20.20;60.80;;;;;;5033230;28;20037;-60
2021/12/17 02:07:29;;;;;;;3.13;1.77;;;20.20;60.80;;;;;;5034264;28;20049;-60
2021/12/17 02:12:44;;;;;;;2.00;1.30;;;20.20;60.80;;;;;;5032414;28;20049;-60
2021/12/17 02:21:05;;;;;;;2.40;1.33;;;20.20;60.80;;;;;;5033026;28;20573;-60
2021/12/17 02:29:01;;;;;;;3.03;1.65;;;20.20;60.80;;;;;;5033666;28;20054;-61
2021/12/17 02:31:29;;;;;;;2.65;1.42;;;20.20;60.80;;;;;;5033721;28;20091;-61
2021/12/17 02:33:58;;;;;;;2.42;1.35;;;20.20;60.80;;;;;;5032745;28;20037;-61
2021/12/17 02:36:28;;;;;;;1.83;1.10;;;20.20;60.80;;;;;;5032915;28;20041;-61
2021/12/17 02:39:03;;;;;;;2.53;1.30;;;20.10;60.80;;;;;;5032217;28;20041;-61
2021/12/17 02:46:58;;;;;;;2.05;1.20;;;20.10;60.70;;;;;;5032440;28;20053;-61
2021/12/17 02:49:23;;;;;;;1.95;1.17;;;20.10;60.80;;;;;;5033304;28;20038;-61
2021/12/17 02:51:49;;;;;;;2.47;1.20;;;20.10;60.70;;;;;;5033207;28;20053;-61
2021/12/17 02:54:14;;;;;;;2.17;1.40;;;20.10;60.70;;;;;;5031451;28;20064;-61
2021/12/17 02:56:40;;;;;;;1.90;1.20;;;20.10;60.70;;;;;;5012943;28;20168;-61
2021/12/17 02:59:05;;;;;;;1.92;1.10;;;20.10;60.80;;;;;;5029279;28;20053;-61
2021/12/17 03:01:32;;;;;;;2.60;1.05;;;20.10;60.80;;;;;;5028954;28;20391;-61
2021/12/17 03:03:57;;;;;;;1.63;1.05;;;20.10;60.70;;;;;;5047757;28;20091;-61
2021/12/17 03:06:23;;;;;;;2.63;1.35;;;20.10;60.70;;;;;;5030534;28;20045;-61
2021/12/17 03:08:48;;;;;;;1.85;1.15;;;20.10;60.70;;;;;;5030924;28;20053;-61
2021/12/17 03:11:15;;;;;;;2.08;1.20;;;20.10;60.70;;;;;;5032320;28;20567;-61
2021/12/17 03:13:43;;;;;;;1.98;1.13;;;20.10;60.70;;;;;;5031527;28;20048;-61
2021/12/17 03:23:48;;;;;;;1.80;0.82;;;20.20;60.70;;;;;;5027212;28;20482;-61
2021/12/17 03:26:15;;;;;;;1.80;0.90;;;20.10;60.70;;;;;;5012681;28;20390;-61
2021/12/17 03:28:42;;;;;;;2.28;1.33;;;20.20;60.60;;;;;;5031543;28;20068;-61
2021/12/17 03:31:08;;;;;;;2.05;0.93;;;20.10;60.60;;;;;;5017197;28;20490;-61
2021/12/17 03:33:34;;;;;;;2.40;1.00;;;20.20;60.60;;;;;;5012492;28;20042;-61
2021/12/17 03:35:59;;;;;;;1.95;0.80;;;20.20;60.70;;;;;;5012335;28;20475;-61
2021/12/17 03:38:25;;;;;;;1.92;1.02;;;20.20;60.60;;;;;;5011144;28;20046;-61
2021/12/17 03:41:05;;;;;;;1.98;1.00;;;20.20;60.60;;;;;;5012379;28;20042;-61
2021/12/17 03:43:32;;;;;;;1.50;1.00;;;20.20;60.60;;;;;;5021209;28;20038;-61
2021/12/17 03:45:58;;;;;;;1.40;0.90;;;20.20;60.60;;;;;;5032422;28;20053;-61
2021/12/17 03:48:24;;;;;;;2.13;0.95;;;20.20;60.60;;;;;;5031231;28;20038;-61
2021/12/17 03:50:49;;;;;;;1.75;0.90;;;20.20;60.60;;;;;;5031428;28;20045;-61
2021/12/17 03:53:15;;;;;;;1.80;0.93;;;20.20;60.50;;;;;;5030494;28;20433;-61
2021/12/17 03:55:40;;;;;;;2.08;0.98;;;20.20;60.50;;;;;;5031299;28;20064;-61
2021/12/17 03:58:06;;;;;;;2.95;1.00;;;20.20;60.50;;;;;;5031359;28;20057;-61
2021/12/17 04:00:32;;;;;;;1.55;0.90;;;20.20;60.50;;;;;;5031646;28;20045;-61
2021/12/17 04:02:57;;;;;;;1.42;0.88;;;20.20;60.50;;;;;;5031953;28;20061;-61
2021/12/17 04:05:23;;;;;;;1.75;0.90;;;20.30;60.60;;;;;;5030873;28;20135;-61
2021/12/17 04:07:48;;;;;;;1.70;0.90;;;20.20;60.50;;;;;;5032197;28;20041;-61
2021/12/17 04:10:14;;;;;;;1.70;0.90;;;20.20;60.50;;;;;;5032324;28;20073;-61
2021/12/17 04:12:53;;;;;;;1.92;1.00;;;20.20;60.40;;;;;;5031969;28;20452;-61
2021/12/17 04:15:19;;;;;;;1.95;0.98;;;20.20;60.50;;;;;;5031053;28;20050;-61
2021/12/17 04:17:52;;;;;;;1.45;0.80;;;20.30;60.50;;;;;;5030610;28;20048;-61
2021/12/17 04:20:17;;;;;;;1.50;0.90;;;20.20;60.40;;;;;;5031538;28;20556;-61
2021/12/17 04:22:43;;;;;;;2.03;1.00;;;20.30;60.50;;;;;;5030902;28;20069;-61
2021/12/17 04:25:08;;;;;;;1.63;0.90;;;20.30;60.40;;;;;;5032446;28;20095;-61
2021/12/17 04:27:34;;;;;;;1.60;0.80;;;20.30;60.40;;;;;;5031591;28;20478;-61
2021/12/17 04:30:00;;;;;;;1.75;0.93;;;20.30;60.40;;;;;;5030811;28;20759;-61
2021/12/17 04:32:25;;;;;;;1.63;0.88;;;20.30;60.50;;;;;;5029442;28;20053;-61
2021/12/17 04:34:51;;;;;;;1.77;0.90;;;20.30;60.50;;;;;;5031899;28;20092;-61
2021/12/17 04:37:16;;;;;;;1.42;0.70;;;20.30;60.50;;;;;;5032269;28;20084;-61
2021/12/17 04:39:42;;;;;;;1.88;0.93;;;20.30;60.40;;;;;;5028483;28;20073;-61
2021/12/17 04:45:05;;;;;;;1.17;0.70;;;20.30;60.40;;;;;;5030850;28;20569;-61
2021/12/17 04:58:28;;;;;;;1.45;0.77;;;20.30;60.40;;;;;;5035078;28;20057;-61
2021/12/17 05:00:55;;;;;;;1.00;0.68;;;20.40;60.50;;;;;;5033376;28;20045;-61
2021/12/17 05:03:20;;;;;;;1.55;0.73;;;20.40;60.50;;;;;;5028551;28;20049;-61
2021/12/17 05:05:46;;;;;;;1.48;0.63;;;20.30;60.40;;;;;;5029656;28;20393;-61
2021/12/17 05:08:16;;;;;;;1.40;0.70;;;20.30;60.40;;;;;;5034396;28;20033;-61
2021/12/17 05:11:01;;;;;;;1.60;0.65;;;20.30;60.30;;;;;;5033526;28;20049;-61
2021/12/17 05:19:04;;;;;;;2.05;0.77;;;20.30;60.30;;;;;;5034768;28;20045;-61
2021/12/17 05:21:29;;;;;;;1.13;0.60;;;20.30;60.30;;;;;;5034352;28;20057;-61
2021/12/17 05:23:55;;;;;;;1.42;0.80;;;20.30;60.30;;;;;;5033848;28;20735;-61
2021/12/17 05:26:21;;;;;;;1.58;0.77;;;20.30;60.30;;;;;;5034627;28;20144;-61
2021/12/17 05:28:47;;;;;;;1.33;0.68;;;20.30;60.30;;;;;;5034088;28;20046;-61
2021/12/17 05:31:15;;;;;;;0.93;0.63;;;20.30;60.30;;;;;;5014802;28;20097;-61
2021/12/17 05:33:40;;;;;;;1.70;0.67;;;20.30;60.40;;;;;;5015057;28;20049;-61
2021/12/17 05:36:06;;;;;;;0.98;0.68;;;20.30;60.40;;;;;;5014429;28;20050;-61
2021/12/17 05:38:32;;;;;;;1.02;0.63;;;20.30;60.30;;;;;;5029359;28;20041;-61
2021/12/17 05:40:57;;;;;;;1.23;0.68;;;20.30;60.40;;;;;;5032558;28;20045;-61
2021/12/17 05:43:23;;;;;;;1.48;0.73;;;20.30;60.30;;;;;;5032303;28;20042;-61
2021/12/17 05:46:02;;;;;;;1.00;0.50;;;20.30;60.30;;;;;;5034185;28;20107;-61
2021/12/17 05:48:27;;;;;;;1.17;0.60;;;20.30;60.40;;;;;;5029674;28;20038;-61
2021/12/17 05:50:58;;;;;;;1.38;0.80;;;20.30;60.40;;;;;;5029270;28;20435;-61
2021/12/17 05:53:24;;;;;;;0.82;0.57;;;20.30;60.30;;;;;;5034556;28;20046;-61
2021/12/17 05:55:49;;;;;;;1.52;0.60;;;20.30;60.30;;;;;;5034273;28;20133;-61
2021/12/17 05:58:15;;;;;;;0.90;0.60;;;20.30;60.40;;;;;;5030037;28;20188;-61
2021/12/17 06:00:41;;;;;;;1.00;0.63;;;20.30;60.40;;;;;;5031668;28;20049;-61
2021/12/17 06:03:07;;;;;;;0.90;0.60;;;20.30;60.30;;;;;;5030338;28;20092;-61
2021/12/17 06:05:33;;;;;;;1.00;0.57;;;20.30;60.30;;;;;;5033422;28;20077;-61
2021/12/17 06:07:59;;;;;;;1.40;0.60;;;20.30;60.30;;;;;;5032825;28;20509;-61
2021/12/17 06:10:24;;;;;;;0.85;0.52;;;20.30;60.30;;;;;;5034136;28;20049;-61
2021/12/17 06:12:50;;;;;;;1.85;0.60;;;20.30;60.30;;;;;;5032244;28;20041;-61
2021/12/17 06:15:17;;;;;;;1.17;0.60;;;20.30;60.30;;;;;;5032901;28;20045;-61
2021/12/17 06:17:42;;;;;;;1.10;0.60;;;20.30;60.20;;;;;;5032886;28;20042;-61
2021/12/17 06:20:09;;;;;;;1.13;0.60;;;20.30;60.30;;;;;;5032775;28;20042;-61
2021/12/17 06:22:35;;;;;;;1.30;0.68;;;20.30;60.90;;;;;;5032552;28;20053;-61
2021/12/17 06:25:00;;;;;;;1.35;0.63;;;20.30;60.30;;;;;;5031021;28;20060;-61
2021/12/17 06:27:26;;;;;;;1.15;0.60;;;20.30;60.20;;;;;;5030901;28;20041;-61
2021/12/17 06:29:52;;;;;;;1.33;0.70;;;20.30;60.20;;;;;;5033600;28;20433;-61
2021/12/17 06:32:18;;;;;;;1.00;0.60;;;20.30;60.20;;;;;;5033175;28;20038;-61
2021/12/17 06:34:43;;;;;;;1.38;0.63;;;20.40;60.20;;;;;;5032067;28;20132;-61
2021/12/17 06:37:09;;;;;;;1.70;0.70;;;20.40;60.20;;;;;;5032058;28;20046;-62
2021/12/17 06:39:35;;;;;;;1.02;0.57;;;20.40;60.20;;;;;;5032055;28;20056;-61
2021/12/17 06:42:00;;;;;;;1.20;0.80;;;20.40;60.20;;;;;;5031992;28;20055;-61
2021/12/17 06:44:27;;;;;;;1.15;0.70;;;20.40;60.20;;;;;;5033970;28;20045;-61
2021/12/17 06:46:59;;;;;;;1.30;0.73;;;20.40;60.20;;;;;;5032351;28;20053;-61
2021/12/17 07:00:10;;;;;;;1.25;0.90;;;20.40;60.00;;;;;;5032927;28;20045;-61
2021/12/17 07:10:47;;;;;;;2.03;0.80;;;20.50;60.20;;;;;;5032495;28;20136;-61
2021/12/17 07:21:23;;;;;;;2.95;1.23;;;20.60;60.40;;;;;;5032504;28;20136;-59
2021/12/17 07:34:12;;;;;;;3.22;0.90;;;20.60;60.50;;;;;;5032662;28;20046;-61
2021/12/17 07:36:56;;;;;;;2.83;0.93;;;20.60;60.60;;;;;;5047377;28;20053;-61
2021/12/17 07:39:22;;;;;;;2.75;1.00;;;20.60;60.60;;;;;;5047885;28;20064;-60
2021/12/17 07:41:47;;;;;;;2.38;1.00;;;20.60;60.80;;;;;;5032231;28;20120;-61
2021/12/17 07:44:13;;;;;;;1.75;0.70;;;20.60;60.80;;;;;;5031856;28;20456;-61
2021/12/17 07:46:38;;;;;;;1.90;1.00;;;20.70;60.90;;;;;;5032555;28;20048;-61
2021/12/17 07:49:04;;;;;;;3.78;1.00;;;20.70;61.00;;;;;;5031421;28;20436;-60
2021/12/17 07:51:29;;;;;;;2.47;0.90;;;20.70;61.00;;;;;;5031514;28;20045;-61
2021/12/17 07:53:56;;;;;;;2.80;1.10;;;20.70;61.00;;;;;;5031585;28;20046;-61
2021/12/17 07:56:26;;;;;;;2.03;1.00;;;20.70;61.10;;;;;;5028413;28;20557;-61
2021/12/17 07:58:51;;;;;;;2.70;0.90;;;20.70;61.10;;;;;;5032042;28;20107;-60
2021/12/17 08:01:17;;;;;;;2.80;1.17;;;20.70;61.10;;;;;;5032369;28;20045;-61
2021/12/17 08:03:43;;;;;;;2.70;0.90;;;20.70;61.10;;;;;;5031447;28;20029;-61
2021/12/17 08:06:08;;;;;;;1.95;1.02;;;20.80;61.10;;;;;;5032220;28;20076;-61
2021/12/17 08:08:34;;;;;;;1.75;0.85;;;20.80;61.20;;;;;;5032652;28;20076;-61
2021/12/17 08:11:00;;;;;;;2.72;0.98;;;20.80;61.20;;;;;;5029758;28;20045;-60
2021/12/17 08:13:29;;;;;;;2.97;1.00;;;20.80;61.30;;;;;;5032369;28;20041;-60
2021/12/17 08:16:14;;;;;;;4.03;1.15;;;20.80;61.40;;;;;;5032091;28;20042;-61
2021/12/17 08:18:50;;;;;;;2.53;1.10;;;20.80;61.40;;;;;;5031841;28;20057;-61
2021/12/17 08:31:30;;;;;;;3.83;1.10;;;20.90;61.70;;;;;;5035218;28;20179;-61
2021/12/17 08:33:57;;;;;;;2.85;0.98;;;20.90;61.70;;;;;;5035692;28;20481;-60
2021/12/17 08:36:22;;;;;;;1.85;0.80;;;20.90;61.70;;;;;;5036037;28;20072;-60
2021/12/17 08:38:49;;;;;;;3.08;0.90;;;20.90;61.80;;;;;;5034710;28;20881;-60
2021/12/17 08:41:15;;;;;;;2.03;1.02;;;20.90;61.80;;;;;;5035780;28;20485;-61
2021/12/17 08:43:41;;;;;;;1.75;0.93;;;20.90;61.80;;;;;;5028101;28;20394;-60
2021/12/17 08:46:06;;;;;;;4.50;1.10;;;21.00;62.00;;;;;;5015159;28;20478;-60
2021/12/17 08:48:32;;;;;;;3.42;0.90;;;21.00;62.00;;;;;;5015599;28;20046;-60
2021/12/17 08:50:58;;;;;;;1.98;0.90;;;21.00;62.00;;;;;;5015497;28;20555;-60
2021/12/17 08:53:23;;;;;;;1.65;0.90;;;21.00;62.00;;;;;;5015143;28;20046;-60
2021/12/17 08:55:49;;;;;;;2.03;1.00;;;21.00;62.00;;;;;;5015429;28;20405;-60
2021/12/17 08:58:14;;;;;;;1.50;0.68;;;21.00;62.00;;;;;;5015259;28;20077;-60
2021/12/17 09:00:43;;;;;;;2.58;1.05;;;21.00;62.10;;;;;;5014858;28;20394;-60
2021/12/17 09:03:10;;;;;;;2.00;1.10;;;21.00;62.10;;;;;;5015702;28;20033;-60
2021/12/17 09:05:37;;;;;;;1.40;0.70;;;21.00;62.10;;;;;;5015779;28;20042;-60
2021/12/17 09:08:04;;;;;;;1.00;0.60;;;21.00;62.10;;;;;;5014654;28;20072;-60
2021/12/17 09:10:30;;;;;;;2.60;0.90;;;21.00;62.10;;;;;;5014382;28;20312;-60
2021/12/17 09:12:55;;;;;;;2.28;0.70;;;21.00;62.20;;;;;;5014872;28;20046;-60
2021/12/17 09:15:21;;;;;;;1.80;0.75;;;21.00;62.20;;;;;;5014440;28;20046;-60
2021/12/17 09:17:46;;;;;;;2.55;1.00;;;21.00;62.20;;;;;;5014834;28;20072;-60
2021/12/17 09:20:12;;;;;;;2.13;0.80;;;21.00;62.20;;;;;;5015002;28;20046;-60
2021/12/17 09:22:37;;;;;;;1.67;0.60;;;21.10;62.20;;;;;;5014548;28;20077;-61
2021/12/17 09:25:04;;;;;;;1.25;0.80;;;21.10;62.20;;;;;;5013603;28;20099;-60
2021/12/17 09:27:29;;;;;;;1.08;0.80;;;21.10;62.20;;;;;;5015258;28;20065;-60
2021/12/17 09:29:55;;;;;;;1.45;0.80;;;21.10;62.20;;;;;;5014281;28;20367;-60
2021/12/17 09:32:21;;;;;;;2.35;0.80;;;21.10;62.30;;;;;;5013672;28;20452;-60
2021/12/17 09:34:46;;;;;;;2.58;0.82;;;21.10;62.30;;;;;;5014204;28;20052;-60
2021/12/17 09:37:13;;;;;;;1.88;0.88;;;21.10;62.30;;;;;;5015180;28;20037;-60
2021/12/17 09:39:38;;;;;;;3.20;0.88;;;21.10;62.30;;;;;;5014755;28;20394;-60
2021/12/17 09:42:04;;;;;;;1.17;0.68;;;21.10;62.40;;;;;;5013615;28;20478;-59
2021/12/17 09:44:30;;;;;;;1.20;0.65;;;21.20;62.40;;;;;;5013632;28;20045;-61
2021/12/17 09:46:57;;;;;;;1.88;0.82;;;21.10;62.20;;;;;;5014370;28;20082;-61
2021/12/17 09:49:23;;;;;;;1.45;0.68;;;21.10;62.20;;;;;;5013877;28;20046;-61
2021/12/17 09:51:48;;;;;;;1.98;0.70;;;21.20;62.40;;;;;;5014485;28;20038;-60
2021/12/17 09:54:14;;;;;;;1.77;0.90;;;21.20;62.30;;;;;;5014650;28;20042;-61
2021/12/17 09:56:40;;;;;;;2.22;0.80;;;21.10;62.20;;;;;;5013561;28;20111;-60
2021/12/17 09:59:05;;;;;;;1.25;0.80;;;21.20;62.30;;;;;;5014349;28;20041;-61
2021/12/17 10:01:31;;;;;;;2.25;0.80;;;21.20;62.20;;;;;;5020478;28;20049;-61
2021/12/17 10:04:19;;;;;;;3.60;0.77;;;21.20;62.00;;;;;;5014460;28;20042;-61
2021/12/17 10:06:44;;;;;;;2.70;0.80;;;21.20;62.00;;;;;;5033952;28;20049;-60
2021/12/17 10:09:10;;;;;;;2.72;1.02;;;21.20;62.10;;;;;;5034009;28;20060;-60
2021/12/17 10:11:36;;;;;;;4.82;0.85;;;21.20;62.20;;;;;;5032089;28;20045;-62
2021/12/17 10:14:18;;;;;;;5.00;0.70;;;21.20;62.30;;;;;;5048337;28;20042;-60
2021/12/17 10:16:43;;;;;;;1.65;0.70;;;21.20;62.20;;;;;;5033277;28;20049;-60
2021/12/17 10:19:09;;;;;;;2.65;0.68;;;21.20;62.10;;;;;;5031897;28;20050;-60
2021/12/17 10:21:38;;;;;;;3.33;0.50;;;21.20;62.10;;;;;;5032850;28;20073;-60
2021/12/17 10:24:04;;;;;;;2.25;0.60;;;21.20;62.00;;;;;;5032608;28;20046;-61
2021/12/17 10:26:40;;;;;;;2.47;0.80;;;21.20;62.00;;;;;;5041483;28;20489;-61
2021/12/17 10:29:05;;;;;;;7.13;0.80;;;21.20;61.80;;;;;;5048222;28;20049;-60
2021/12/17 10:31:31;;;;;;;2.03;0.60;;;21.20;61.80;;;;;;5032929;28;20037;-60
2021/12/17 10:34:01;;;;;;;3.50;0.70;;;21.20;61.90;;;;;;5033266;28;20088;-61
2021/12/17 10:36:43;;;;;;;2.13;0.80;;;21.20;62.20;;;;;;5032502;28;20140;-62
2021/12/17 10:39:25;;;;;;;5.82;0.80;;;21.20;62.20;;;;;;5032938;28;20049;-61
2021/12/17 10:41:51;;;;;;;2.22;0.65;;;21.30;62.40;;;;;;5047051;28;20448;-61
2021/12/17 10:44:19;;;;;;;2.60;0.80;;;21.30;62.40;;;;;;5031994;28;20132;-62
2021/12/17 10:47:07;;;;;;;5.80;1.00;;;21.30;62.40;;;;;;5032328;28;20378;-62
2021/12/17 10:49:32;;;;;;;3.35;1.13;;;21.30;62.40;;;;;;5033059;28;20103;-63
2021/12/17 10:52:13;;;;;;;7.78;1.10;;;21.30;62.30;;;;;;5031487;28;20041;-60
2021/12/17 10:54:38;;;;;;;12.90;1.27;;;21.30;62.30;;;;;;5033525;28;20076;-61
2021/12/17 10:57:07;;;;;;;5.50;0.77;;;21.30;62.30;;;;;;5030842;28;20049;-62
2021/12/17 10:59:34;;;;;;;9.18;1.15;;;21.30;62.20;;;;;;5031266;28;20053;-63
2021/12/17 11:02:05;;;;;;;3.55;0.60;;;21.30;62.20;;;;;;5015568;28;20072;-63
2021/12/17 11:04:37;;;;;;;7.18;1.10;;;21.30;62.20;;;;;;5033061;28;20045;-63
2021/12/17 11:07:04;;;;;;;6.70;0.95;;;21.30;62.20;;;;;;5030512;28;20458;-63
2021/12/17 11:09:52;;;;;;;4.35;1.13;;;21.30;62.20;;;;;;5031600;28;20049;-63
2021/12/17 11:12:32;;;;;;;3.03;0.88;;;21.30;62.10;;;;;;5030895;28;20049;-63
2021/12/17 11:15:24;;;;;;;2.63;0.80;;;21.30;62.10;;;;;;5032283;28;20087;-63
2021/12/17 11:17:57;;;;;;;4.13;0.70;;;21.30;62.20;;;;;;5032696;28;20053;-63
2021/12/17 11:20:27;;;;;;;1.98;0.63;;;21.30;62.20;;;;;;5032077;28;20041;-63
2021/12/17 11:22:53;;;;;;;6.50;1.00;;;21.30;62.80;;;;;;5032017;28;20056;-61
2021/12/17 11:25:20;;;;;;;9.00;1.25;;;21.30;62.20;;;;;;5031683;28;20077;-61
2021/12/17 11:27:46;;;;;;;3.45;0.88;;;21.30;62.20;;;;;;5045012;28;20041;-60
2021/12/17 11:30:17;;;;;;;4.88;1.10;;;21.30;62.20;;;;;;5052767;28;20132;-62
2021/12/17 11:32:43;;;;;;;6.45;1.05;;;21.30;62.20;;;;;;5050802;28;20045;-60
2021/12/17 11:35:09;;;;;;;3.72;0.75;;;21.30;62.20;;;;;;5050412;28;20389;-60
2021/12/17 11:37:34;;;;;;;5.90;1.05;;;21.30;62.20;;;;;;5052802;28;20592;-59
2021/12/17 11:40:03;;;;;;;9.32;1.10;;;21.30;62.20;;;;;;5034460;28;20543;-60
2021/12/17 11:42:59;;;;;;;10.75;1.00;;;21.30;62.10;;;;;;5030869;28;20080;-62
2021/12/17 11:45:29;;;;;;;4.43;1.20;;;21.30;62.10;;;;;;5028920;28;20041;-60
2021/12/17 11:48:10;;;;;;;5.57;1.60;;;21.30;62.10;;;;;;5031269;28;20041;-58
2021/12/17 11:50:36;;;;;;;6.68;1.30;;;21.30;61.90;;;;;;5030097;28;20104;-59
2021/12/17 11:53:19;;;;;;;4.20;1.20;;;21.30;61.80;;;;;;5032159;28;20058;-57
2021/12/17 11:55:46;;;;;;;3.85;1.02;;;21.40;61.80;;;;;;5031807;28;20825;-58
2021/12/17 11:58:15;;;;;;;8.45;1.17;;;21.50;61.70;;;;;;5034820;28;20057;-59
2021/12/17 12:00:41;;;;;;;5.07;0.95;;;21.50;61.80;;;;;;5036362;28;20048;-60
2021/12/17 12:03:19;;;;;;;8.02;1.13;;;21.60;61.80;;;;;;5035478;28;20621;-60
2021/12/17 12:05:46;;;;;;;8.70;1.20;;;21.60;61.60;;;;;;5034241;28;20392;-60
2021/12/17 12:08:49;;;;;;;5.17;0.83;;;21.60;61.60;;;;;;5035662;28;20052;-60
2021/12/17 12:11:19;;;;;;;4.70;0.80;;;21.60;61.80;;;;;;5035244;28;20092;-60
2021/12/17 12:13:46;;;;;;;6.15;1.13;;;21.50;61.70;;;;;;5035465;28;20041;-61
2021/12/17 12:16:19;;;;;;;9.00;1.20;;;21.50;61.80;;;;;;5037844;28;20076;-60
2021/12/17 12:18:46;;;;;;;5.32;1.17;;;21.50;62.00;;;;;;5021900;28;20050;-60
2021/12/17 12:21:15;;;;;;;7.10;1.10;;;21.50;62.00;;;;;;5035465;28;20045;-61
2021/12/17 12:23:42;;;;;;;4.15;0.90;;;21.50;62.10;;;;;;5034369;28;20039;-61
2021/12/17 12:26:26;;;;;;;3.40;0.90;;;21.50;62.20;;;;;;5035725;28;20049;-61
2021/12/17 12:28:59;;;;;;;3.15;0.80;;;21.50;62.30;;;;;;5033824;28;20469;-60
2021/12/17 12:31:31;;;;;;;6.90;1.20;;;21.40;62.30;;;;;;5034960;28;20072;-61
2021/12/17 12:34:06;;;;;;;4.22;0.98;;;21.40;62.30;;;;;;5032787;28;20041;-60
2021/12/17 12:36:51;;;;;;;7.00;0.80;;;21.40;62.30;;;;;;5035557;28;20045;-60
2021/12/17 12:39:21;;;;;;;3.78;0.85;;;21.40;62.30;;;;;;5032542;28;20052;-59
2021/12/17 12:41:59;;;;;;;3.05;0.80;;;21.40;62.30;;;;;;5035059;28;20037;-59
2021/12/17 12:44:47;;;;;;;3.47;0.85;;;21.40;62.30;;;;;;5034335;28;20038;-59
2021/12/17 12:47:29;;;;;;;4.45;0.73;;;21.40;62.30;;;;;;5035427;28;20049;-60
2021/12/17 12:50:06;;;;;;;3.53;0.90;;;21.40;62.30;;;;;;5032274;28;20498;-60
2021/12/17 12:52:32;;;;;;;3.60;1.10;;;21.40;62.30;;;;;;5034600;28;20049;-59
2021/12/17 12:55:22;;;;;;;6.93;1.05;;;21.40;62.20;;;;;;5034927;28;20041;-58
2021/12/17 12:57:52;;;;;;;1.85;0.82;;;21.40;62.20;;;;;;5033676;28;20049;-60
2021/12/17 13:00:26;;;;;;;2.50;0.77;;;21.30;62.10;;;;;;5034263;28;20128;-59
2021/12/17 13:03:00;;;;;;;4.38;1.10;;;21.30;62.00;;;;;;5034703;28;20064;-58
2021/12/17 13:05:26;;;;;;;1.50;0.80;;;21.30;61.90;;;;;;5035250;28;20081;-58
2021/12/17 13:07:54;;;;;;;2.58;0.80;;;21.30;61.90;;;;;;5032679;28;20080;-59
2021/12/17 13:10:25;;;;;;;3.80;0.70;;;21.30;62.00;;;;;;5035408;28;20057;-59
2021/12/17 13:13:31;;;;;;;2.55;0.70;;;21.30;62.00;;;;;;5032820;28;20378;-61
2021/12/17 13:16:12;;;;;;;3.75;0.73;;;21.30;61.90;;;;;;5034988;28;20100;-59
2021/12/17 13:23:57;;;;;;;3.60;0.90;;;21.30;62.00;;;;;;5033801;28;20053;-59
2021/12/17 13:26:24;;;;;;;4.53;0.90;;;21.30;62.10;;;;;;5035314;28;20041;-59
2021/12/17 13:29:01;;;;;;;3.03;1.00;;;21.30;62.20;;;;;;5033721;28;20147;-59
2021/12/17 13:31:35;;;;;;;2.07;0.70;;;21.30;62.20;;;;;;5035097;28;20049;-59
2021/12/17 13:34:01;;;;;;;3.65;0.82;;;21.30;62.30;;;;;;5033621;28;20058;-59
2021/12/17 13:36:27;;;;;;;2.88;0.70;;;21.30;62.40;;;;;;5041942;28;20067;-59
2021/12/17 13:38:57;;;;;;;3.80;1.00;;;21.30;62.40;;;;;;5054239;28;20463;-59
2021/12/17 13:41:37;;;;;;;2.30;0.88;;;21.30;62.40;;;;;;5053829;28;20044;-58
2021/12/17 13:44:03;;;;;;;3.10;0.90;;;21.20;62.40;;;;;;5043197;28;20073;-59
2021/12/17 13:46:29;;;;;;;3.38;0.90;;;21.20;62.40;;;;;;5033035;28;20042;-59
2021/12/17 13:48:54;;;;;;;4.38;0.80;;;21.20;62.40;;;;;;5033318;28;20064;-59
2021/12/17 13:51:20;;;;;;;2.78;0.70;;;21.20;62.50;;;;;;5031556;28;20049;-59
2021/12/17 13:53:46;;;;;;;6.13;0.77;;;21.20;62.60;;;;;;5032252;28;20103;-59
2021/12/17 13:56:15;;;;;;;3.22;0.80;;;21.20;62.60;;;;;;5032521;28;20424;-59
2021/12/17 13:58:41;;;;;;;4.10;0.80;;;21.20;62.70;;;;;;5033708;28;20057;-59
2021/12/17 14:01:06;;;;;;;3.28;1.00;;;21.20;62.80;;;;;;5034191;28;20046;-59
2021/12/17 14:03:34;;;;;;;3.83;0.68;;;21.20;62.80;;;;;;5032270;28;20037;-59
2021/12/17 14:06:19;;;;;;;3.60;0.75;;;21.20;62.80;;;;;;5033460;28;20123;-59
2021/12/17 14:08:44;;;;;;;3.53;0.90;;;21.20;62.80;;;;;;5033367;28;20452;-59
2021/12/17 14:11:25;;;;;;;3.40;0.93;;;21.20;62.80;;;;;;5031543;28;20489;-59
2021/12/17 14:13:51;;;;;;;3.67;0.70;;;21.20;62.80;;;;;;5033523;28;20044;-59
2021/12/17 14:16:29;;;;;;;1.95;0.90;;;21.20;62.90;;;;;;5032997;28;20053;-59
2021/12/17 14:18:59;;;;;;;3.33;0.93;;;21.20;62.80;;;;;;5032675;28;20524;-58
2021/12/17 14:21:28;;;;;;;5.88;0.80;;;21.10;62.80;;;;;;5033857;28;20485;-59
2021/12/17 14:23:54;;;;;;;2.65;0.98;;;21.10;62.80;;;;;;5032323;28;20389;-59
2021/12/17 14:26:29;;;;;;;2.38;0.70;;;21.10;62.70;;;;;;5032811;28;20056;-59
2021/12/17 14:28:55;;;;;;;2.65;0.70;;;21.10;62.70;;;;;;5033266;28;20049;-59
2021/12/17 14:31:23;;;;;;;2.45;0.70;;;21.10;62.70;;;;;;5033043;28;20045;-59
2021/12/17 14:33:54;;;;;;;2.88;0.73;;;21.10;62.70;;;;;;5033149;28;20049;-59
2021/12/17 14:36:28;;;;;;;2.92;1.05;;;21.10;62.70;;;;;;5033681;28;20069;-59
2021/12/17 14:39:05;;;;;;;2.78;0.70;;;21.10;63.40;;;;;;5032642;28;20041;-59
2021/12/17 14:41:40;;;;;;;2.78;0.70;;;21.10;62.80;;;;;;5033821;28;20045;-59
2021/12/17 14:44:22;;;;;;;1.85;0.70;;;21.10;62.80;;;;;;5033354;28;20076;-59
2021/12/17 14:57:15;;;;;;;3.58;0.80;;;21.00;62.90;;;;;;5033575;28;20050;-59
2021/12/17 14:59:08;;;;;;;7.25;0.98;;;21.00;62.90;;;;;;5030626;28;20049;-58
2021/12/17 15:00:56;;;;;;;2.25;0.75;;;21.00;62.90;;;;;;5029292;28;20042;-60
2021/12/17 15:03:40;;;;;;;2.58;0.75;;;21.00;62.90;;;;;;5025623;28;20095;-59
2021/12/17 15:06:06;;;;;;;2.47;1.02;;;21.00;62.90;;;;;;5030700;28;20064;-59
2021/12/17 15:08:31;;;;;;;3.70;0.70;;;21.00;62.90;;;;;;5031766;28;20041;-58
2021/12/17 15:10:57;;;;;;;2.58;0.68;;;21.00;62.90;;;;;;5031403;28;20038;-58
2021/12/17 15:13:23;;;;;;;2.08;0.60;;;21.00;62.90;;;;;;5030692;28;20041;-59
2021/12/17 15:15:49;;;;;;;3.45;0.70;;;21.00;62.90;;;;;;5031171;28;20037;-59
2021/12/17 15:18:16;;;;;;;2.83;0.70;;;21.00;63.00;;;;;;5028262;28;20049;-59
2021/12/17 15:20:43;;;;;;;1.60;0.68;;;21.00;63.00;;;;;;5030983;28;20052;-59
2021/12/17 15:23:09;;;;;;;2.67;0.68;;;21.00;63.00;;;;;;5031470;28;20493;-60
2021/12/17 15:25:36;;;;;;;2.58;0.70;;;21.00;63.00;;;;;;5042082;28;20041;-60
2021/12/17 15:28:03;;;;;;;2.03;0.70;;;21.00;63.00;;;;;;5051782;28;20068;-60
2021/12/17 15:30:30;;;;;;;1.33;0.60;;;21.00;63.00;;;;;;5050999;28;20148;-60
2021/12/17 15:32:56;;;;;;;3.30;0.90;;;21.00;62.90;;;;;;5052122;28;20048;-60
2021/12/17 15:35:23;;;;;;;1.85;0.70;;;21.00;62.90;;;;;;5051814;28;20052;-60
2021/12/17 15:37:49;;;;;;;3.13;0.68;;;21.00;62.80;;;;;;5051985;28;20044;-60
2021/12/17 15:40:15;;;;;;;4.07;1.02;;;21.00;62.80;;;;;;5052742;28;20128;-62
2021/12/17 15:42:40;;;;;;;3.28;0.60;;;20.90;62.80;;;;;;5050458;28;20436;-61
2021/12/17 15:45:06;;;;;;;1.90;0.52;;;21.00;62.90;;;;;;5051144;28;20044;-60